sensor_id;sensor_type;location;lat;lon;timestamp;P1;durP1;ratioP1;P2;durP2;ratioP2
74912;SDS011;63878;55.624;37.304;2023-04-25T00:03:20;9.40;;;5.20;;
74912;SDS011;63878;55.624;37.304;2023-04-25T00:13:21;9.77;;;5.00;;
74912;SDS011;63878;55.624;37.304;2023-04-25T00:23:21;14.70;;;6.57;;
74912;SDS011;63878;55.624;37.304;2023-04-25T00:33:22;11.43;;;6.70;;
74912;SDS011;63878;55.624;37.304;2023-04-25T00:43:24;11.15;;;6.20;;
74912;SDS011;63878;55.624;37.304;2023-04-25T00:53:26;8.32;;;5.40;;
74912;SDS011;63878;55.624;37.304;2023-04-25T01:03:28;8.73;;;5.57;;
74912;SDS011;63878;55.624;37.304;2023-04-25T01:13:29;8.88;;;5.10;;
74912;SDS011;63878;55.624;37.304;2023-04-25T01:23:30;10.52;;;6.18;;
74912;SDS011;63878;55.624;37.304;2023-04-25T01:33:33;12.05;;;6.18;;
74912;SDS011;63878;55.624;37.304;2023-04-25T01:43:33;8.70;;;5.38;;
74912;SDS011;63878;55.624;37.304;2023-04-25T01:53:34;12.40;;;5.93;;
74912;SDS011;63878;55.624;37.304;2023-04-25T02:03:35;8.80;;;5.55;;
74912;SDS011;63878;55.624;37.304;2023-04-25T02:13:36;10.50;;;5.75;;
74912;SDS011;63878;55.624;37.304;2023-04-25T02:23:37;6.60;;;3.95;;
74912;SDS011;63878;55.624;37.304;2023-04-25T02:33:37;7.33;;;3.80;;
74912;SDS011;63878;55.624;37.304;2023-04-25T02:43:38;7.00;;;3.70;;
74912;SDS011;63878;55.624;37.304;2023-04-25T02:53:38;8.23;;;5.27;;
74912;SDS011;63878;55.624;37.304;2023-04-25T03:03:39;8.93;;;4.90;;
74912;SDS011;63878;55.624;37.304;2023-04-25T03:13:39;11.25;;;5.65;;
74912;SDS011;63878;55.624;37.304;2023-04-25T03:23:40;10.40;;;5.38;;
74912;SDS011;63878;55.624;37.304;2023-04-25T03:33:40;7.60;;;5.88;;
74912;SDS011;63878;55.624;37.304;2023-04-25T03:43:41;10.32;;;5.90;;
74912;SDS011;63878;55.624;37.304;2023-04-25T03:53:41;9.45;;;6.38;;
74912;SDS011;63878;55.624;37.304;2023-04-25T04:03:42;7.45;;;6.32;;
74912;SDS011;63878;55.624;37.304;2023-04-25T04:13:42;7.87;;;6.50;;
74912;SDS011;63878;55.624;37.304;2023-04-25T04:23:43;10.05;;;6.00;;
74912;SDS011;63878;55.624;37.304;2023-04-25T04:33:43;10.25;;;5.68;;
74912;SDS011;63878;55.624;37.304;2023-04-25T04:43:44;7.63;;;5.85;;
74912;SDS011;63878;55.624;37.304;2023-04-25T04:53:44;10.47;;;6.10;;
74912;SDS011;63878;55.624;37.304;2023-04-25T05:03:45;10.45;;;7.50;;
74912;SDS011;63878;55.624;37.304;2023-04-25T05:13:46;6.13;;;5.17;;
74912;SDS011;63878;55.624;37.304;2023-04-25T05:23:46;6.97;;;4.60;;
74912;SDS011;63878;55.624;37.304;2023-04-25T05:33:47;9.30;;;5.28;;
74912;SDS011;63878;55.624;37.304;2023-04-25T05:43:47;6.97;;;5.60;;
74912;SDS011;63878;55.624;37.304;2023-04-25T05:53:48;8.05;;;4.88;;
74912;SDS011;63878;55.624;37.304;2023-04-25T06:03:48;7.85;;;5.10;;
74912;SDS011;63878;55.624;37.304;2023-04-25T06:13:49;7.28;;;4.65;;
74912;SDS011;63878;55.624;37.304;2023-04-25T06:23:50;5.67;;;3.93;;
74912;SDS011;63878;55.624;37.304;2023-04-25T06:33:50;4.78;;;4.22;;
74912;SDS011;63878;55.624;37.304;2023-04-25T06:43:51;7.57;;;4.47;;
74912;SDS011;63878;55.624;37.304;2023-04-25T06:53:51;7.18;;;3.47;;
74912;SDS011;63878;55.624;37.304;2023-04-25T07:03:52;6.35;;;3.42;;
74912;SDS011;63878;55.624;37.304;2023-04-25T07:13:53;7.17;;;4.17;;
74912;SDS011;63878;55.624;37.304;2023-04-25T07:23:53;8.23;;;4.45;;
74912;SDS011;63878;55.624;37.304;2023-04-25T07:33:54;8.23;;;3.90;;
74912;SDS011;63878;55.624;37.304;2023-04-25T07:43:54;10.00;;;4.53;;
74912;SDS011;63878;55.624;37.304;2023-04-25T07:53:55;8.73;;;4.87;;
74912;SDS011;63878;55.624;37.304;2023-04-25T08:03:56;1.90;;;1.40;;
74912;SDS011;63878;55.624;37.304;2023-04-25T08:13:56;1.77;;;1.35;;
74912;SDS011;63878;55.624;37.304;2023-04-25T08:23:57;4.60;;;3.00;;
74912;SDS011;63878;55.624;37.304;2023-04-25T08:33:57;6.57;;;3.80;;
74912;SDS011;63878;55.624;37.304;2023-04-25T08:43:58;5.72;;;3.60;;
74912;SDS011;63878;55.624;37.304;2023-04-25T08:54:11;4.95;;;3.20;;
74912;SDS011;63878;55.624;37.304;2023-04-25T09:04:12;1.02;;;0.77;;
74912;SDS011;63878;55.624;37.304;2023-04-25T09:14:14;6.25;;;3.60;;
74912;SDS011;63878;55.624;37.304;2023-04-25T09:34:39;4.78;;;3.70;;
74912;SDS011;63878;55.624;37.304;2023-04-25T09:44:44;5.88;;;3.65;;
74912;SDS011;63878;55.624;37.304;2023-04-25T10:04:48;4.00;;;2.75;;
74912;SDS011;63878;55.624;37.304;2023-04-25T10:14:50;4.25;;;3.10;;
74912;SDS011;63878;55.624;37.304;2023-04-25T10:24:52;3.92;;;2.42;;
74912;SDS011;63878;55.624;37.304;2023-04-25T10:34:53;3.35;;;2.28;;
74912;SDS011;63878;55.624;37.304;2023-04-25T10:45:07;3.72;;;2.53;;
74912;SDS011;63878;55.624;37.304;2023-04-25T11:05:09;2.00;;;1.70;;
74912;SDS011;63878;55.624;37.304;2023-04-25T11:15:09;3.22;;;1.60;;
74912;SDS011;63878;55.624;37.304;2023-04-25T11:25:11;2.87;;;2.63;;
74912;SDS011;63878;55.624;37.304;2023-04-25T11:35:13;4.05;;;2.97;;
74912;SDS011;63878;55.624;37.304;2023-04-25T11:45:14;4.13;;;2.20;;
74912;SDS011;63878;55.624;37.304;2023-04-25T11:55:16;5.47;;;2.40;;
74912;SDS011;63878;55.624;37.304;2023-04-25T12:05:17;2.03;;;1.83;;
74912;SDS011;63878;55.624;37.304;2023-04-25T12:15:22;3.40;;;2.10;;
74912;SDS011;63878;55.624;37.304;2023-04-25T12:35:38;1.95;;;1.25;;
74912;SDS011;63878;55.624;37.304;2023-04-25T12:45:38;6.07;;;2.50;;
74912;SDS011;63878;55.624;37.304;2023-04-25T12:55:39;2.63;;;1.60;;
74912;SDS011;63878;55.624;37.304;2023-04-25T13:05:39;1.48;;;1.33;;
74912;SDS011;63878;55.624;37.304;2023-04-25T13:15:40;3.55;;;2.42;;
74912;SDS011;63878;55.624;37.304;2023-04-25T13:25:41;4.35;;;2.30;;
74912;SDS011;63878;55.624;37.304;2023-04-25T13:35:42;4.18;;;2.03;;
74912;SDS011;63878;55.624;37.304;2023-04-25T13:45:42;4.65;;;2.13;;
74912;SDS011;63878;55.624;37.304;2023-04-25T13:55:43;2.83;;;2.13;;
74912;SDS011;63878;55.624;37.304;2023-04-25T14:05:44;2.93;;;1.50;;
74912;SDS011;63878;55.624;37.304;2023-04-25T14:15:44;6.47;;;2.20;;
74912;SDS011;63878;55.624;37.304;2023-04-25T14:25:45;6.47;;;2.30;;
74912;SDS011;63878;55.624;37.304;2023-04-25T14:35:45;8.48;;;2.90;;
74912;SDS011;63878;55.624;37.304;2023-04-25T14:45:46;3.83;;;2.07;;
74912;SDS011;63878;55.624;37.304;2023-04-25T14:55:46;3.47;;;2.30;;
74912;SDS011;63878;55.624;37.304;2023-04-25T15:05:47;5.45;;;2.10;;
74912;SDS011;63878;55.624;37.304;2023-04-25T15:15:47;6.43;;;2.30;;
74912;SDS011;63878;55.624;37.304;2023-04-25T15:25:50;2.83;;;2.00;;
74912;SDS011;63878;55.624;37.304;2023-04-25T15:35:51;5.55;;;2.95;;
74912;SDS011;63878;55.624;37.304;2023-04-25T15:56:29;4.40;;;2.55;;
74912;SDS011;63878;55.624;37.304;2023-04-25T16:06:30;5.60;;;3.00;;
74912;SDS011;63878;55.624;37.304;2023-04-25T16:16:30;6.88;;;3.67;;
74912;SDS011;63878;55.624;37.304;2023-04-25T16:26:31;5.72;;;3.50;;
74912;SDS011;63878;55.624;37.304;2023-04-25T16:36:31;8.15;;;3.88;;
74912;SDS011;63878;55.624;37.304;2023-04-25T16:46:32;4.55;;;2.83;;
74912;SDS011;63878;55.624;37.304;2023-04-25T16:56:33;4.65;;;3.03;;
74912;SDS011;63878;55.624;37.304;2023-04-25T17:06:33;5.70;;;3.63;;
74912;SDS011;63878;55.624;37.304;2023-04-25T17:16:34;5.60;;;3.60;;
74912;SDS011;63878;55.624;37.304;2023-04-25T17:26:37;10.68;;;3.60;;
74912;SDS011;63878;55.624;37.304;2023-04-25T17:36:37;5.38;;;2.83;;
74912;SDS011;63878;55.624;37.304;2023-04-25T17:46:38;9.30;;;5.10;;
74912;SDS011;63878;55.624;37.304;2023-04-25T17:56:38;3.97;;;2.50;;
74912;SDS011;63878;55.624;37.304;2023-04-25T18:06:39;9.00;;;3.40;;
74912;SDS011;63878;55.624;37.304;2023-04-25T18:16:41;9.50;;;2.92;;
74912;SDS011;63878;55.624;37.304;2023-04-25T18:26:46;5.88;;;4.10;;
74912;SDS011;63878;55.624;37.304;2023-04-25T18:36:47;7.20;;;3.58;;
74912;SDS011;63878;55.624;37.304;2023-04-25T18:46:48;6.00;;;3.60;;
74912;SDS011;63878;55.624;37.304;2023-04-25T18:56:48;5.85;;;3.47;;
74912;SDS011;63878;55.624;37.304;2023-04-25T19:06:49;7.18;;;3.05;;
74912;SDS011;63878;55.624;37.304;2023-04-25T19:16:49;2.70;;;2.25;;
74912;SDS011;63878;55.624;37.304;2023-04-25T19:26:50;6.78;;;3.92;;
74912;SDS011;63878;55.624;37.304;2023-04-25T19:36:50;7.85;;;4.68;;
74912;SDS011;63878;55.624;37.304;2023-04-25T19:46:51;8.82;;;5.03;;
74912;SDS011;63878;55.624;37.304;2023-04-25T19:56:51;8.27;;;5.10;;
74912;SDS011;63878;55.624;37.304;2023-04-25T20:06:52;9.07;;;5.90;;
74912;SDS011;63878;55.624;37.304;2023-04-25T20:16:52;13.88;;;8.35;;
74912;SDS011;63878;55.624;37.304;2023-04-25T20:26:53;9.63;;;5.80;;
74912;SDS011;63878;55.624;37.304;2023-04-25T20:36:53;8.52;;;5.57;;
74912;SDS011;63878;55.624;37.304;2023-04-25T20:46:54;10.80;;;6.20;;
74912;SDS011;63878;55.624;37.304;2023-04-25T20:56:55;12.27;;;6.10;;
74912;SDS011;63878;55.624;37.304;2023-04-25T21:06:55;10.83;;;5.50;;
74912;SDS011;63878;55.624;37.304;2023-04-25T21:16:56;10.32;;;5.68;;
74912;SDS011;63878;55.624;37.304;2023-04-25T21:26:57;8.38;;;4.85;;
74912;SDS011;63878;55.624;37.304;2023-04-25T21:36:58;10.45;;;5.25;;
74912;SDS011;63878;55.624;37.304;2023-04-25T21:46:58;7.47;;;5.57;;
74912;SDS011;63878;55.624;37.304;2023-04-25T21:56:59;9.77;;;5.05;;
74912;SDS011;63878;55.624;37.304;2023-04-25T22:06:59;8.02;;;5.85;;
74912;SDS011;63878;55.624;37.304;2023-04-25T22:17:00;11.02;;;6.10;;
74912;SDS011;63878;55.624;37.304;2023-04-25T22:27:01;7.37;;;4.63;;
74912;SDS011;63878;55.624;37.304;2023-04-25T22:37:01;6.88;;;4.07;;
74912;SDS011;63878;55.624;37.304;2023-04-25T22:47:02;10.18;;;4.20;;
74912;SDS011;63878;55.624;37.304;2023-04-25T22:57:05;3.60;;;2.72;;
74912;SDS011;63878;55.624;37.304;2023-04-25T23:07:06;4.85;;;2.28;;
74912;SDS011;63878;55.624;37.304;2023-04-25T23:17:07;1.93;;;1.73;;
74912;SDS011;63878;55.624;37.304;2023-04-25T23:27:07;3.33;;;2.15;;
74912;SDS011;63878;55.624;37.304;2023-04-25T23:37:08;5.23;;;3.03;;
74912;SDS011;63878;55.624;37.304;2023-04-25T23:47:08;3.47;;;2.65;;
74912;SDS011;63878;55.624;37.304;2023-04-25T23:57:09;3.30;;;3.00;;
